MDT,Max TemperatureF,Mean TemperatureF,Min TemperatureF,Max Dew PointF,MeanDew PointF,Min DewpointF,Max Humidity, Mean Humidity, Min Humidity, Max Sea Level PressureIn, Mean Sea Level PressureIn, Min Sea Level PressureIn, Max VisibilityMiles, Mean VisibilityMiles, Min VisibilityMiles, Max Wind SpeedMPH, Mean Wind SpeedMPH, Max Gust SpeedMPH,PrecipitationIn, CloudCover, Events, WindDirDegrees
2012-9-1,79,65,50,44,29,10,71,40,9,29.90,29.78,29.68,10,10,10,35,15,44,0.00,1,,274
2012-9-2,74,62,49,29,26,22,41,29,16,29.99,29.91,29.86,10,10,10,39,21,48,0.00,0,,253
2012-9-3,75,58,40,34,30,27,57,37,17,30.01,29.97,29.93,10,10,10,25,10,38,T,1,,276
2012-9-4,67,57,46,43,37,34,71,50,29,30.18,30.07,29.93,10,10,10,26,9,31,T,4,Rain,7
2012-9-5,76,57,37,47,36,30,82,51,19,30.10,30.01,29.89,10,10,10,29,10,35,T,3,Rain,326
2012-9-6,58,50,42,47,45,39,100,76,51,30.23,30.18,30.07,10,10,6,15,6,17,0.02,7,Rain,323
2012-9-7,79,57,35,44,35,24,100,57,13,30.28,30.24,30.19,10,9,1,13,5,20,0.00,0,,247
2012-9-8,85,60,35,39,30,23,89,50,11,30.28,30.14,29.95,10,10,10,21,8,28,0.00,0,,234
2012-9-9,83,65,47,42,34,29,56,37,17,29.93,29.79,29.67,10,10,8,35,8,44,T,1,,225
2012-9-10,69,55,40,36,31,26,62,44,26,29.91,29.73,29.66,10,10,10,52,23,60,0.00,0,,250
2012-9-11,61,47,33,30,21,12,75,45,15,30.20,30.04,29.91,10,10,10,31,14,38,0.00,0,,280
2012-9-12,64,46,27,23,20,18,69,46,22,30.38,30.32,30.22,10,10,10,21,8,26,0.00,0,,291
2012-9-13,78,61,43,31,28,25,53,35,16,30.36,30.29,30.23,10,10,10,13,7,16,0.00,0,,219
2012-9-14,86,62,37,32,27,20,70,40,10,30.22,30.09,29.99,10,10,10,33,12,45,0.00,0,,291
2012-9-15,71,59,46,33,29,27,46,33,20,30.14,30.07,29.97,10,10,10,28,9,33,0.00,0,,333
2012-9-16,65,52,39,31,30,27,64,46,28,30.33,30.24,30.10,10,10,10,21,9,25,0.00,0,,23
2012-9-17,76,54,31,35,31,26,78,49,19,30.22,30.12,30.03,10,10,10,20,8,25,0.00,0,,309
2012-9-18,85,66,47,35,29,19,60,35,9,30.11,29.96,29.84,10,10,10,31,15,44,0.00,0,,284
2012-9-19,79,58,36,34,30,23,70,43,16,30.20,30.10,30.01,10,10,10,15,6,21,0.00,0,,350
2012-9-20,79,60,41,34,31,26,58,39,19,30.20,30.12,30.05,10,10,10,15,6,16,0.00,0,,308
2012-9-21,80,60,40,36,34,32,70,45,19,30.17,30.12,30.08,10,9,7,13,6,15,0.00,0,,10
2012-9-22,77,58,38,36,34,31,73,47,21,30.13,30.07,30.01,10,10,10,16,6,22,0.00,0,,108
2012-9-23,75,58,40,35,33,32,73,48,23,30.11,30.08,30.03,10,10,10,13,6,16,0.00,0,,35
2012-9-24,78,57,36,38,34,30,82,51,19,30.05,29.97,29.89,10,10,10,12,4,13,0.00,0,,268
2012-9-25,78,60,42,49,42,35,83,53,22,30.00,29.92,29.86,10,10,6,23,8,39,0.03,1,Rain,318
2012-9-26,64,52,40,46,44,42,93,71,48,30.16,30.12,30.06,10,10,10,22,6,25,T,4,,358
2012-9-27,70,52,33,44,39,31,100,67,33,30.19,30.12,30.05,10,10,8,13,6,16,0.00,0,,130
2012-9-28,82,58,34,41,34,26,96,55,14,30.04,29.95,29.85,10,10,10,21,8,25,0.00,0,,230
2012-9-29,76,63,50,38,35,33,59,40,21,30.01,29.93,29.84,10,10,10,26,15,35,0.00,0,,265
2012-9-30,65,55,45,39,37,36,76,57,37,30.29,30.20,30.01,10,10,10,23,9,29,0.00,1,,15